weather.gov     
National Weather Service

Terminal Aerodrome Forecast
NWS Homepage
This page is being discontinued on March 12, 2014.
The same data is available at this site. Please update your bookmarks.
Thank you, and we apologize for the inconvenience.
Please send an email to SR-SRH.Webmaster@noaa.gov with any concerns.


Current Version
Previous Version:    01  02  03  04  05  06  07  08  09  10  11  12  13  14  
[Printable]
251
FTUS41 KBOX 280910 AAB
TAFBOS
TAF AMD
KBOS 280910Z 2809/2912 15006KT 4SM BR OVC004
     FM281100 16007KT 2SM -SHRA BR OVC008
     FM281500 17011KT 4SM -SHRA BR OVC012
     FM281800 19013KT P6SM BKN035
     FM290000 23011KT P6SM BKN050
     FM290600 25010KT P6SM SCT050=


251
FTUS41 KBOX 280910 AAB
TAFBOS
TAF AMD
KBOS 280910Z 2809/2912 15006KT 4SM BR OVC004
     FM281100 16007KT 2SM -SHRA BR OVC008
     FM281500 17011KT 4SM -SHRA BR OVC012
     FM281800 19013KT P6SM BKN035
     FM290000 23011KT P6SM BKN050
     FM290600 25010KT P6SM SCT050=




U.S. Dept. of Commerce
NOAA National Weather Service
1325 East West Highway
Silver Spring, MD 20910
E-mail: w-nws.webmaster@noaa.gov
Page last modified: May 16, 2007
NATIONAL WEATHER SERVICE: for Safety, for Work, for Fun - FOR LIFE